Time;durP1;ratioP1;P1;durP2;ratioP2;P2;SDS_P1;SDS_P2;PMS_P1;PMS_P2;Temp;Humidity;BMP_temperature;BMP_pressure;BME280_temperature;BME280_humidity;BME280_pressure;Samples;Min_cycle;Max_cycle;Signal;HPM_P1;HPM_P2
2023/10/20 00:04:44;;;;;;;12.53;10.20;;;9.30;99.90;;;;;;10532319;28;20264;-82
2023/10/20 00:09:47;;;;;;;15.00;11.07;;;;;;;;;;10529688;28;20798;-82
2023/10/20 00:14:49;;;;;;;11.00;9.87;;;9.00;99.90;;;;;;10490310;28;20275;-82
2023/10/20 00:19:52;;;;;;;9.30;7.67;;;9.20;99.90;;;;;;10508465;28;20237;-82
2023/10/20 00:24:54;;;;;;;11.20;9.80;;;9.30;99.90;;;;;;10533595;28;20237;-81
2023/10/20 00:29:57;;;;;;;13.57;10.73;;;9.20;99.90;;;;;;10539627;28;20246;-81
2023/10/20 00:35:03;;;;;;;13.93;11.63;;;8.90;99.90;;;;;;10520459;28;20259;-82
2023/10/20 00:40:10;;;;;;;11.57;9.50;;;9.00;99.90;;;;;;10537788;28;20235;-82
2023/10/20 00:45:13;;;;;;;12.03;9.13;;;9.00;99.90;;;;;;10538337;28;20678;-82
2023/10/20 00:50:16;;;;;;;11.87;10.00;;;8.90;99.90;;;;;;10538534;28;20278;-81
2023/10/20 00:55:21;;;;;;;9.30;7.47;;;9.00;99.90;;;;;;10537448;28;20237;-81
2023/10/20 01:00:24;;;;;;;12.27;9.87;;;9.00;99.90;;;;;;10536337;28;20744;-81
2023/10/20 01:05:27;;;;;;;10.07;8.20;;;9.00;99.90;;;;;;10536205;28;20302;-81
2023/10/20 01:10:29;;;;;;;8.50;7.30;;;8.90;99.90;;;;;;10536678;28;20306;-81
2023/10/20 01:15:32;;;;;;;9.27;7.37;;;8.80;99.90;;;;;;10500149;28;20281;-82
2023/10/20 01:20:35;;;;;;;10.53;7.20;;;8.90;99.90;;;;;;10501425;28;20271;-81
2023/10/20 01:25:38;;;;;;;8.27;6.03;;;9.00;99.90;;;;;;10537372;28;20251;-81
2023/10/20 01:30:41;;;;;;;7.47;6.67;;;9.20;99.90;;;;;;10533692;28;20313;-81
2023/10/20 01:35:44;;;;;;;6.93;6.03;;;9.30;99.90;;;;;;10536487;28;20233;-81
2023/10/20 01:40:46;;;;;;;12.90;6.93;;;9.20;99.90;;;;;;10529357;28;20593;-81
2023/10/20 01:45:49;;;;;;;5.93;5.33;;;9.20;99.90;;;;;;10492613;28;20254;-81
2023/10/20 01:50:52;;;;;;;6.37;5.70;;;8.90;99.90;;;;;;10528865;28;20712;-81
2023/10/20 01:55:54;;;;;;;7.10;6.40;;;9.10;99.90;;;;;;10534636;28;20283;-82
2023/10/20 02:00:57;;;;;;;6.00;5.33;;;9.20;99.90;;;;;;10499944;28;20230;-81
2023/10/20 02:06:00;;;;;;;6.07;5.47;;;9.20;99.90;;;;;;10534440;28;20709;-81
2023/10/20 02:11:02;;;;;;;6.07;4.93;;;9.10;99.90;;;;;;10534752;28;20633;-81
2023/10/20 02:16:09;;;;;;;7.77;5.63;;;9.10;99.90;;;;;;10535278;28;20226;-81
2023/10/20 02:21:12;;;;;;;5.03;4.50;;;9.10;99.90;;;;;;10534176;28;20201;-81
2023/10/20 02:26:16;;;;;;;6.37;5.77;;;9.00;99.90;;;;;;10513638;28;20202;-82
2023/10/20 02:31:19;;;;;;;6.60;5.80;;;8.70;99.90;;;;;;10492588;28;20315;-81
2023/10/20 02:36:22;;;;;;;6.80;6.20;;;;;;;;;;10491045;28;20230;-81
2023/10/20 02:41:25;;;;;;;6.67;5.97;;;8.50;99.90;;;;;;10503391;28;20626;-82
2023/10/20 02:46:28;;;;;;;6.90;6.20;;;8.70;99.90;;;;;;10534132;28;20237;-82
2023/10/20 02:51:30;;;;;;;5.60;5.10;;;8.80;99.90;;;;;;10532832;28;20253;-81
2023/10/20 02:56:33;;;;;;;7.20;6.50;;;8.80;99.90;;;;;;10531929;28;20648;-81
2023/10/20 03:01:36;;;;;;;7.40;5.87;;;8.70;99.90;;;;;;10518662;28;20259;-81
2023/10/20 03:06:41;;;;;;;4.80;4.40;;;8.70;99.90;;;;;;10531420;28;20253;-81
2023/10/20 03:11:44;;;;;;;4.33;3.93;;;8.80;99.90;;;;;;10532212;28;20298;-81
2023/10/20 03:16:46;;;;;;;6.50;4.77;;;8.80;99.90;;;;;;10522117;28;20225;-81
2023/10/20 03:21:49;;;;;;;5.87;5.00;;;8.90;99.90;;;;;;10531025;28;20292;-81
2023/10/20 03:26:51;;;;;;;4.60;4.13;;;8.90;99.90;;;;;;10530313;28;20229;-81
2023/10/20 03:31:54;;;;;;;5.53;5.00;;;8.90;99.90;;;;;;10531711;28;20245;-81
2023/10/20 03:36:57;;;;;;;6.50;5.23;;;8.90;99.90;;;;;;10521532;28;20281;-81
2023/10/20 03:42:01;;;;;;;4.90;4.10;;;8.70;99.90;;;;;;10520633;28;20221;-80
2023/10/20 03:47:05;;;;;;;7.67;4.33;;;8.80;99.90;;;;;;10530649;28;20225;-81
2023/10/20 03:52:11;;;;;;;5.00;4.33;;;8.80;99.90;;;;;;10531696;28;20261;-81
2023/10/20 03:57:15;;;;;;;5.30;4.80;;;9.00;99.90;;;;;;10532297;28;20255;-81
2023/10/20 04:02:18;;;;;;;5.43;4.90;;;9.10;99.90;;;;;;10538383;28;20291;-81
2023/10/20 04:07:20;;;;;;;5.83;3.40;;;9.00;99.90;;;;;;10539012;28;20739;-81
2023/10/20 04:12:23;;;;;;;4.67;4.20;;;9.30;99.90;;;;;;10539890;28;20290;-81
2023/10/20 04:17:26;;;;;;;5.30;4.80;;;9.20;99.90;;;;;;10539370;28;20240;-82
2023/10/20 04:22:29;;;;;;;6.00;4.50;;;9.20;99.90;;;;;;10535500;28;20233;-81
2023/10/20 04:43:43;;;;;;;4.60;4.10;;;9.20;99.90;;;;;;10537509;28;20290;-81
2023/10/20 04:54:20;;;;;;;4.53;4.13;;;9.30;99.90;;;;;;10536130;28;20318;-81
2023/10/20 04:59:24;;;;;;;5.03;4.53;;;9.30;99.90;;;;;;10536063;28;20218;-81
2023/10/20 05:04:36;;;;;;;4.97;4.43;;;9.20;99.90;;;;;;10528869;28;20249;-81
2023/10/20 05:09:43;;;;;;;4.83;4.37;;;9.20;99.90;;;;;;10536287;28;20249;-81
2023/10/20 05:14:49;;;;;;;5.83;4.63;;;9.30;99.90;;;;;;10535704;28;20235;-81
2023/10/20 05:19:53;;;;;;;3.73;3.43;;;9.40;99.90;;;;;;10494268;28;20235;-81
2023/10/20 05:24:56;;;;;;;4.33;3.37;;;9.20;99.90;;;;;;10527144;28;20255;-80
2023/10/20 05:29:58;;;;;;;5.47;4.47;;;9.10;99.90;;;;;;10535206;28;20249;-81
2023/10/20 05:35:01;;;;;;;3.87;3.33;;;9.00;99.90;;;;;;10533672;28;20194;-81
2023/10/20 05:40:04;;;;;;;6.37;3.00;;;9.30;99.90;;;;;;10527957;28;20688;-84
2023/10/20 05:45:13;;;;;;;3.03;2.40;;;9.60;99.90;;;;;;10531288;28;20287;-85
2023/10/20 05:50:15;;;;;;;4.40;2.63;;;9.80;99.90;;;;;;10531325;28;20253;-85
2023/10/20 05:55:18;;;;;;;4.83;3.40;;;9.70;99.90;;;;;;10518336;28;20218;-87
2023/10/20 06:00:21;;;;;;;11.30;2.87;;;10.20;99.90;;;;;;10535180;28;20781;-86
2023/10/20 06:05:23;;;;;;;5.53;4.03;;;10.10;99.90;;;;;;10532867;28;20674;-86
2023/10/20 06:10:26;;;;;;;4.17;2.97;;;10.10;99.90;;;;;;10532479;28;20254;-86
2023/10/20 06:15:29;;;;;;;6.33;3.43;;;10.30;99.90;;;;;;10534041;28;20233;-86
2023/10/20 06:20:31;;;;;;;3.40;3.10;;;10.10;99.90;;;;;;10533847;28;20265;-86
2023/10/20 06:25:35;;;;;;;5.40;2.43;;;10.20;99.90;;;;;;10531818;28;20680;-86
2023/10/20 06:30:43;;;;;;;4.47;3.23;;;10.40;99.90;;;;;;10538067;28;20314;-86
2023/10/20 06:35:52;;;;;;;3.57;3.23;;;10.30;99.90;;;;;;10532940;28;20226;-87
2023/10/20 06:40:56;;;;;;;2.63;2.27;;;10.40;99.90;;;;;;10532013;28;20259;-87
2023/10/20 06:46:00;;;;;;;3.13;2.27;;;10.70;99.90;;;;;;10532476;28;20238;-88
2023/10/20 06:51:03;;;;;;;6.17;5.57;;;10.80;99.90;;;;;;10533836;28;20647;-87
2023/10/20 06:56:09;;;;;;;3.97;3.57;;;10.50;99.90;;;;;;10513700;28;20229;-88
2023/10/20 07:01:19;;;;;;;4.77;3.33;;;10.60;99.90;;;;;;10502686;28;20235;-87
2023/10/20 07:06:21;;;;;;;8.07;5.30;;;11.00;99.90;;;;;;10499628;28;20731;-88
2023/10/20 07:11:24;;;;;;;6.73;4.27;;;10.60;99.90;;;;;;10531945;28;20253;-87
2023/10/20 07:16:27;;;;;;;6.60;5.53;;;10.70;99.90;;;;;;10530723;28;20695;-87
2023/10/20 07:21:30;;;;;;;7.10;4.87;;;10.50;99.90;;;;;;10528697;28;20345;-87
2023/10/20 07:26:32;;;;;;;7.70;5.50;;;10.70;99.90;;;;;;10528653;28;20641;-87
2023/10/20 07:31:38;;;;;;;6.33;5.63;;;10.70;99.90;;;;;;10522360;28;20720;-87
2023/10/20 07:36:41;;;;;;;4.87;3.13;;;10.50;99.90;;;;;;10518442;28;20233;-87
2023/10/20 07:41:44;;;;;;;5.77;4.77;;;10.50;99.90;;;;;;10525809;28;20349;-87
2023/10/20 07:46:46;;;;;;;7.53;4.03;;;10.60;99.90;;;;;;10529943;28;20621;-87
2023/10/20 07:51:49;;;;;;;11.80;9.73;;;10.40;99.90;;;;;;10530778;28;20330;-87
2023/10/20 07:56:52;;;;;;;5.10;4.23;;;10.30;99.90;;;;;;10490654;28;20692;-87
2023/10/20 08:01:55;;;;;;;7.33;5.97;;;10.40;99.90;;;;;;10509410;28;20230;-87
2023/10/20 08:06:59;;;;;;;4.00;3.07;;;10.20;99.90;;;;;;10528976;28;20698;-87
2023/10/20 08:12:02;;;;;;;4.70;3.40;;;10.20;99.90;;;;;;10529527;28;20242;-88
2023/10/20 08:17:07;;;;;;;10.70;7.37;;;10.50;99.90;;;;;;10526586;28;20221;-87
2023/10/20 08:22:10;;;;;;;4.30;3.70;;;10.60;99.90;;;;;;10529442;28;20236;-87
2023/10/20 08:27:14;;;;;;;6.27;2.93;;;10.50;99.90;;;;;;10528870;28;20266;-87
2023/10/20 08:32:16;;;;;;;10.33;7.20;;;10.40;99.90;;;;;;10491706;28;20321;-86
2023/10/20 08:37:19;;;;;;;5.03;3.83;;;10.50;99.90;;;;;;10526908;28;20645;-87
2023/10/20 08:42:22;;;;;;;4.10;3.40;;;10.60;99.90;;;;;;10529444;28;20245;-87
2023/10/20 08:47:27;;;;;;;8.00;5.97;;;10.80;99.90;;;;;;10529610;28;20255;-87
2023/10/20 08:52:33;;;;;;;3.33;2.53;;;10.50;99.90;;;;;;10537087;28;20697;-87
2023/10/20 08:57:35;;;;;;;5.40;4.87;;;10.80;99.90;;;;;;10533745;28;20243;-87
2023/10/20 09:02:38;;;;;;;6.20;3.90;;;10.70;99.90;;;;;;10496888;28;20292;-87
2023/10/20 09:07:53;;;;;;;4.47;3.67;;;10.70;99.90;;;;;;10531162;28;20267;-87
2023/10/20 09:12:55;;;;;;;6.30;5.63;;;10.90;99.90;;;;;;10532636;28;20263;-87
2023/10/20 09:18:00;;;;;;;6.97;5.57;;;10.90;99.90;;;;;;10534434;28;20660;-87
2023/10/20 09:23:09;;;;;;;10.97;6.70;;;10.60;99.90;;;;;;10533189;28;20294;-88
2023/10/20 09:28:17;;;;;;;7.00;6.27;;;10.20;99.90;;;;;;10512370;28;20234;-88
2023/10/20 09:33:21;;;;;;;4.00;3.63;;;10.30;99.90;;;;;;10535535;28;20307;-87
2023/10/20 09:38:28;;;;;;;4.10;3.60;;;10.60;99.90;;;;;;10531579;28;20272;-87
2023/10/20 09:43:35;;;;;;;7.73;5.73;;;10.30;99.90;;;;;;10523659;28;20619;-87
2023/10/20 09:48:40;;;;;;;2.80;2.50;;;10.30;99.90;;;;;;10528710;28;20236;-87
2023/10/20 09:53:44;;;;;;;8.10;5.13;;;10.50;99.90;;;;;;10533120;28;20255;-87
2023/10/20 09:58:50;;;;;;;5.90;4.87;;;10.40;99.90;;;;;;10528221;28;20294;-87
2023/10/20 10:04:03;;;;;;;7.83;5.73;;;10.50;99.90;;;;;;10529118;28;20701;-87
2023/10/20 10:09:07;;;;;;;7.27;5.33;;;10.50;99.90;;;;;;10530294;28;20757;-87
2023/10/20 10:14:21;;;;;;;10.10;7.13;;;10.30;99.90;;;;;;10533259;28;20258;-83
2023/10/20 10:19:26;;;;;;;11.47;5.23;;;10.20;99.90;;;;;;10492493;28;20734;-85
2023/10/20 10:24:36;;;;;;;5.57;4.60;;;10.80;99.90;;;;;;10493921;28;20230;-84
2023/10/20 10:35:03;;;;;;;8.13;6.37;;;10.40;99.90;;;;;;10532325;28;20256;-84
2023/10/20 10:40:15;;;;;;;8.27;6.93;;;10.20;99.90;;;;;;10505343;28;20238;-84
2023/10/20 10:45:33;;;;;;;7.17;5.77;;;9.90;99.90;;;;;;10532358;28;20694;-84
2023/10/20 10:50:38;;;;;;;5.10;4.03;;;9.80;99.90;;;;;;10532331;28;20692;-84
2023/10/20 10:55:41;;;;;;;5.93;4.47;;;9.90;99.90;;;;;;10517839;28;20639;-84
2023/10/20 11:00:45;;;;;;;9.83;6.67;;;9.90;99.90;;;;;;10527529;28;20233;-84
2023/10/20 11:05:49;;;;;;;7.50;5.20;;;9.90;99.90;;;;;;10532027;28;20314;-84
2023/10/20 11:10:52;;;;;;;6.13;4.83;;;10.10;99.90;;;;;;10527696;28;20277;-84
2023/10/20 11:15:54;;;;;;;4.53;4.03;;;10.00;99.90;;;;;;10531845;28;20634;-84
2023/10/20 11:20:57;;;;;;;7.43;5.23;;;10.10;99.90;;;;;;10533228;28;20195;-84
2023/10/20 11:26:00;;;;;;;8.60;5.30;;;9.90;99.90;;;;;;10531752;28;20229;-84
2023/10/20 11:31:03;;;;;;;6.67;4.93;;;10.00;99.90;;;;;;10531907;28;20264;-83
2023/10/20 11:36:06;;;;;;;6.90;5.10;;;10.00;99.90;;;;;;10530370;28;20865;-84
2023/10/20 11:41:10;;;;;;;5.07;4.13;;;10.10;99.90;;;;;;10529039;28;20219;-83
2023/10/20 11:46:12;;;;;;;6.50;4.70;;;10.50;99.90;;;;;;10530452;28;20259;-84
2023/10/20 11:51:15;;;;;;;5.70;4.93;;;10.60;99.90;;;;;;10531394;28;20249;-84
2023/10/20 11:56:18;;;;;;;6.97;5.47;;;10.20;99.90;;;;;;10531179;28;20224;-83
2023/10/20 12:01:21;;;;;;;4.47;3.93;;;10.10;99.90;;;;;;10529051;28;20313;-83
2023/10/20 12:06:23;;;;;;;6.73;4.33;;;10.20;99.90;;;;;;10530947;28;20265;-83
2023/10/20 12:11:26;;;;;;;6.93;4.83;;;10.40;99.90;;;;;;10529892;28;20305;-83
2023/10/20 12:16:29;;;;;;;13.20;5.23;;;10.50;99.90;;;;;;10527151;28;20267;-83
2023/10/20 12:21:32;;;;;;;4.60;3.00;;;10.20;99.90;;;;;;10530157;28;20237;-83
2023/10/20 12:26:36;;;;;;;7.63;5.00;;;10.20;99.90;;;;;;10539634;28;20297;-83
2023/10/20 12:31:39;;;;;;;7.50;5.33;;;10.40;99.90;;;;;;10538875;28;20679;-83
2023/10/20 12:36:42;;;;;;;8.30;5.73;;;10.30;99.90;;;;;;10538168;28;20260;-83
2023/10/20 12:41:45;;;;;;;8.67;6.80;;;9.90;99.90;;;;;;10537868;28;20730;-83
2023/10/20 12:46:48;;;;;;;8.37;5.83;;;10.00;99.90;;;;;;10536347;28;20284;-83
2023/10/20 12:51:51;;;;;;;7.87;6.43;;;9.60;99.90;;;;;;10535799;28;20775;-83
2023/10/20 12:56:54;;;;;;;6.97;5.30;;;9.80;99.90;;;;;;10536900;28;20227;-84
2023/10/20 13:01:56;;;;;;;4.40;4.00;;;9.60;99.90;;;;;;10544245;28;20237;-84
2023/10/20 13:06:59;;;;;;;6.53;4.80;;;9.60;99.90;;;;;;10537418;28;20249;-84
2023/10/20 13:12:02;;;;;;;7.70;5.57;;;9.80;99.90;;;;;;10537446;28;20241;-84
2023/10/20 13:17:05;;;;;;;9.17;6.10;;;9.60;99.90;;;;;;10535979;28;20657;-84
2023/10/20 13:22:08;;;;;;;7.20;5.47;;;9.40;99.90;;;;;;10536699;28;20233;-84
2023/10/20 13:27:12;;;;;;;4.37;3.97;;;9.40;99.90;;;;;;10533390;28;20237;-84
2023/10/20 13:32:15;;;;;;;4.17;3.73;;;9.70;99.90;;;;;;10532183;28;20272;-84
2023/10/20 13:37:17;;;;;;;7.80;5.87;;;9.60;99.90;;;;;;10519973;28;20287;-84
2023/10/20 13:42:20;;;;;;;6.10;4.53;;;10.00;99.90;;;;;;10534924;28;20222;-84
2023/10/20 13:47:22;;;;;;;5.67;3.70;;;9.90;99.90;;;;;;10533504;28;20271;-84
2023/10/20 13:52:25;;;;;;;7.13;4.33;;;9.90;99.90;;;;;;10532572;28;20320;-84
2023/10/20 13:57:29;;;;;;;5.90;4.50;;;10.30;99.90;;;;;;10532434;28;20715;-84
2023/10/20 14:02:32;;;;;;;5.53;4.43;;;9.90;99.90;;;;;;10530594;28;20267;-84
2023/10/20 14:07:34;;;;;;;4.43;3.97;;;10.30;99.90;;;;;;10531849;28;20282;-84
2023/10/20 14:12:37;;;;;;;3.53;2.97;;;10.30;99.90;;;;;;10529567;28;20261;-84
2023/10/20 14:17:40;;;;;;;4.37;3.97;;;10.30;99.90;;;;;;10532867;28;20237;-84
2023/10/20 14:22:43;;;;;;;4.37;3.93;;;9.90;99.90;;;;;;10533065;28;20241;-84
2023/10/20 14:27:46;;;;;;;5.47;4.47;;;9.50;99.90;;;;;;10534037;28;20234;-83
2023/10/20 14:32:48;;;;;;;5.43;4.03;;;9.90;99.90;;;;;;10531616;28;20790;-83
2023/10/20 14:37:51;;;;;;;8.23;3.43;;;9.80;99.90;;;;;;10489949;28;20235;-83
2023/10/20 14:42:53;;;;;;;3.07;2.70;;;10.30;99.90;;;;;;10168991;28;10000472;-84
2023/10/20 14:47:56;;;;;;;3.67;3.03;;;10.90;99.90;;;;;;10526575;28;20285;-84
2023/10/20 14:52:58;;;;;;;4.13;3.50;;;10.60;99.90;;;;;;10528037;28;20323;-84
2023/10/20 14:58:02;;;;;;;6.00;4.70;;;10.50;99.90;;;;;;10530127;28;20226;-83
2023/10/20 15:03:05;;;;;;;4.90;3.90;;;10.70;99.90;;;;;;10526451;28;20206;-83
2023/10/20 15:08:09;;;;;;;5.20;3.97;;;11.10;99.90;;;;;;10528099;28;20233;-84
2023/10/20 15:13:14;;;;;;;3.07;2.43;;;11.00;99.90;;;;;;10527765;28;20628;-84
2023/10/20 15:18:18;;;;;;;3.00;2.70;;;10.10;99.90;;;;;;10526394;28;20227;-84
2023/10/20 15:23:21;;;;;;;4.17;3.40;;;10.50;99.90;;;;;;10527985;28;20237;-85
2023/10/20 15:28:23;;;;;;;4.40;4.00;;;10.60;99.90;;;;;;10527844;28;20225;-84
2023/10/20 15:33:26;;;;;;;5.20;3.47;;;10.40;99.90;;;;;;10527892;28;20667;-84
2023/10/20 15:38:29;;;;;;;2.93;2.60;;;10.40;99.90;;;;;;10528529;28;20247;-83
2023/10/20 15:43:35;;;;;;;4.37;3.63;;;10.70;99.90;;;;;;10527325;28;20743;-84
2023/10/20 15:48:39;;;;;;;3.93;3.60;;;10.50;99.90;;;;;;10528394;28;20280;-84
2023/10/20 15:53:41;;;;;;;5.57;4.13;;;10.40;99.90;;;;;;10527852;28;20249;-84
2023/10/20 15:58:44;;;;;;;3.70;3.33;;;10.20;99.90;;;;;;10534612;28;20240;-84
2023/10/20 16:03:47;;;;;;;3.73;3.00;;;10.40;99.90;;;;;;10536739;28;20275;-84
2023/10/20 16:08:53;;;;;;;3.20;2.73;;;10.50;99.90;;;;;;10535296;28;20303;-84
2023/10/20 16:13:55;;;;;;;3.77;3.30;;;10.40;99.90;;;;;;10533109;28;20308;-84
2023/10/20 16:18:58;;;;;;;3.60;3.30;;;9.80;99.90;;;;;;10534761;28;20298;-85
2023/10/20 16:24:00;;;;;;;3.80;2.93;;;9.70;99.90;;;;;;9467854;28;10000944;-85
2023/10/20 16:29:03;;;;;;;3.27;2.80;;;9.70;99.90;;;;;;10534132;28;20920;-84
2023/10/20 16:34:05;;;;;;;5.03;3.07;;;9.90;99.90;;;;;;10535285;28;20648;-85
2023/10/20 16:39:08;;;;;;;2.93;2.50;;;9.70;99.90;;;;;;10535188;28;20229;-85
2023/10/20 16:44:12;;;;;;;2.97;2.67;;;10.30;99.90;;;;;;10535512;28;20617;-84
2023/10/20 16:49:15;;;;;;;3.03;2.33;;;9.90;99.90;;;;;;10506938;28;20234;-85
2023/10/20 16:54:17;;;;;;;3.53;2.63;;;10.30;99.90;;;;;;10518420;28;20251;-84
2023/10/20 16:59:25;;;;;;;3.40;2.73;;;10.00;99.90;;;;;;10533160;28;20217;-83
2023/10/20 17:04:28;;;;;;;3.00;2.70;;;9.90;99.90;;;;;;10532132;28;20262;-84
2023/10/20 17:09:34;;;;;;;2.77;2.13;;;9.70;99.90;;;;;;10532774;28;20602;-84
2023/10/20 17:14:37;;;;;;;2.33;2.13;;;9.80;99.90;;;;;;10529664;28;20300;-84
2023/10/20 17:19:40;;;;;;;3.03;1.93;;;9.60;99.90;;;;;;10532514;28;20303;-84
2023/10/20 17:24:43;;;;;;;4.33;3.20;;;9.70;99.90;;;;;;10533336;28;20287;-84
2023/10/20 17:29:49;;;;;;;2.73;2.50;;;9.80;99.90;;;;;;10532025;28;21014;-84
2023/10/20 17:34:52;;;;;;;2.70;2.50;;;9.60;99.90;;;;;;10532960;28;20256;-84
2023/10/20 17:39:54;;;;;;;2.50;2.30;;;9.60;99.90;;;;;;10532832;28;20677;-85
2023/10/20 17:44:57;;;;;;;2.43;2.10;;;9.50;99.90;;;;;;10518631;28;20279;-85
2023/10/20 17:49:59;;;;;;;2.90;2.47;;;9.60;99.90;;;;;;10519294;28;20251;-84
2023/10/20 17:55:02;;;;;;;3.80;2.50;;;9.70;99.90;;;;;;10512322;28;20307;-84
2023/10/20 18:00:06;;;;;;;3.73;2.63;;;9.50;99.90;;;;;;10493006;28;20295;-85
2023/10/20 18:05:16;;;;;;;4.80;2.60;;;9.90;99.90;;;;;;10511494;28;20300;-85
2023/10/20 18:10:18;;;;;;;2.90;2.43;;;10.10;99.90;;;;;;10518911;28;20968;-82
2023/10/20 18:15:22;;;;;;;3.80;2.30;;;10.20;99.90;;;;;;10508832;28;20304;-84
2023/10/20 18:20:25;;;;;;;3.33;2.53;;;9.90;99.90;;;;;;10504231;28;20275;-84
2023/10/20 18:25:28;;;;;;;6.23;3.23;;;10.00;99.90;;;;;;10513547;28;20310;-83
2023/10/20 18:30:31;;;;;;;2.73;2.53;;;9.80;99.90;;;;;;10516782;28;20677;-84
2023/10/20 18:35:34;;;;;;;2.43;2.20;;;9.70;99.90;;;;;;10530568;28;20256;-84
2023/10/20 18:40:36;;;;;;;4.17;2.17;;;10.00;99.90;;;;;;10494730;28;20202;-84
2023/10/20 18:45:39;;;;;;;6.97;3.57;;;10.20;99.90;;;;;;10524126;28;20617;-84
2023/10/20 18:50:42;;;;;;;2.67;2.00;;;9.90;99.90;;;;;;10510292;28;20233;-84
2023/10/20 18:55:45;;;;;;;3.50;2.27;;;10.10;99.90;;;;;;10532100;28;20249;-84
2023/10/20 19:00:47;;;;;;;3.70;2.17;;;10.20;99.90;;;;;;10531454;28;20259;-84
2023/10/20 19:05:50;;;;;;;2.30;2.10;;;10.10;99.90;;;;;;10531301;28;20318;-84
2023/10/20 19:10:53;;;;;;;2.03;1.70;;;10.00;99.90;;;;;;10522412;28;20225;-84
2023/10/20 19:15:56;;;;;;;5.00;2.87;;;10.10;99.90;;;;;;10514015;28;20306;-84
2023/10/20 19:21:00;;;;;;;4.23;2.47;;;10.00;99.90;;;;;;10528819;28;20225;-84
2023/10/20 19:26:09;;;;;;;1.80;1.60;;;9.90;99.90;;;;;;10518477;28;20233;-84
2023/10/20 19:31:13;;;;;;;2.20;2.00;;;10.20;99.90;;;;;;10530176;28;20286;-84
2023/10/20 19:36:16;;;;;;;1.63;1.50;;;10.30;99.90;;;;;;10525944;28;20705;-84
2023/10/20 19:41:19;;;;;;;2.63;2.07;;;10.50;99.90;;;;;;10527559;28;20647;-84
2023/10/20 19:46:22;;;;;;;2.37;1.97;;;10.80;99.90;;;;;;10498774;28;20286;-84
2023/10/20 19:51:25;;;;;;;2.43;2.23;;;10.80;99.90;;;;;;10530967;28;20228;-84
2023/10/20 19:56:27;;;;;;;2.73;1.93;;;11.40;99.90;;;;;;10529476;28;20252;-84
2023/10/20 20:01:30;;;;;;;4.47;2.50;;;11.10;99.90;;;;;;10514321;28;20283;-84
2023/10/20 20:06:32;;;;;;;3.90;2.50;;;11.20;99.90;;;;;;10530317;28;20261;-84
2023/10/20 20:11:35;;;;;;;2.20;1.63;;;10.60;99.90;;;;;;10530808;28;20669;-84
2023/10/20 20:16:47;;;;;;;4.60;2.47;;;11.00;99.90;;;;;;10529376;28;20643;-84
2023/10/20 20:21:49;;;;;;;1.53;1.40;;;11.20;99.90;;;;;;10514252;28;20287;-84
2023/10/20 20:26:53;;;;;;;6.80;3.33;;;11.00;99.90;;;;;;10517412;28;20677;-84
2023/10/20 20:31:55;;;;;;;5.37;2.57;;;10.70;99.90;;;;;;10529476;28;20695;-84
2023/10/20 20:36:59;;;;;;;3.47;2.23;;;10.80;99.90;;;;;;10516207;28;20253;-84
2023/10/20 20:42:01;;;;;;;2.50;2.13;;;10.40;99.90;;;;;;10525169;28;20311;-84
2023/10/20 20:47:04;;;;;;;6.60;3.57;;;10.50;99.90;;;;;;10527971;28;20300;-84
2023/10/20 20:52:07;;;;;;;4.93;3.77;;;10.40;99.90;;;;;;10523683;28;20233;-84
2023/10/20 20:57:10;;;;;;;3.53;3.00;;;10.40;99.90;;;;;;10534517;28;20683;-84
2023/10/20 21:02:12;;;;;;;2.53;2.17;;;10.20;99.90;;;;;;10513239;28;20233;-84
2023/10/20 21:07:15;;;;;;;3.63;2.83;;;10.50;99.90;;;;;;10533035;28;20707;-84
2023/10/20 21:12:18;;;;;;;3.67;3.13;;;10.40;99.90;;;;;;10524710;28;20230;-84
2023/10/20 21:17:21;;;;;;;3.43;3.13;;;10.30;99.90;;;;;;10500035;28;20702;-84
2023/10/20 21:22:23;;;;;;;3.63;2.43;;;10.20;99.90;;;;;;10524757;28;20233;-84
2023/10/20 21:27:26;;;;;;;3.27;2.83;;;10.20;99.90;;;;;;10523518;28;20763;-84
2023/10/20 21:32:29;;;;;;;4.13;2.57;;;10.00;99.90;;;;;;10530466;28;20205;-84
2023/10/20 21:37:31;;;;;;;5.60;2.90;;;10.20;99.90;;;;;;10524712;28;20253;-84
2023/10/20 21:42:36;;;;;;;4.03;2.70;;;10.30;99.90;;;;;;10535246;28;20225;-84
2023/10/20 21:47:38;;;;;;;4.63;3.30;;;10.30;99.90;;;;;;10535712;28;20244;-84
2023/10/20 21:52:42;;;;;;;6.50;3.77;;;10.10;99.90;;;;;;10533344;28;20234;-84
2023/10/20 21:57:44;;;;;;;4.60;4.17;;;10.00;99.90;;;;;;10521559;28;20302;-84
2023/10/20 22:02:47;;;;;;;3.83;2.93;;;10.00;99.90;;;;;;10535047;28;20664;-83
2023/10/20 22:07:49;;;;;;;5.13;3.10;;;9.90;99.90;;;;;;10530939;28;20261;-83
2023/10/20 22:12:52;;;;;;;3.20;2.77;;;10.00;99.90;;;;;;10530842;28;20694;-84
2023/10/20 22:17:55;;;;;;;4.43;3.10;;;10.10;99.90;;;;;;10535076;28;20254;-84
2023/10/20 22:22:57;;;;;;;3.93;2.67;;;10.30;99.90;;;;;;10526201;28;20247;-84
2023/10/20 22:28:00;;;;;;;3.47;2.97;;;10.30;99.90;;;;;;10529593;28;20700;-84
2023/10/20 22:33:03;;;;;;;4.13;2.87;;;10.10;99.90;;;;;;10529504;28;20233;-84
2023/10/20 22:38:06;;;;;;;5.77;3.53;;;10.00;99.90;;;;;;10516711;28;20245;-84
2023/10/20 22:43:08;;;;;;;2.50;2.13;;;9.90;99.90;;;;;;10532445;28;20298;-84
2023/10/20 22:48:11;;;;;;;4.80;3.67;;;9.70;99.90;;;;;;10528240;28;20236;-84
2023/10/20 22:53:14;;;;;;;3.87;2.97;;;9.80;99.90;;;;;;10526721;28;20284;-84
2023/10/20 22:58:16;;;;;;;5.80;4.80;;;9.90;99.90;;;;;;10532227;28;20294;-84
2023/10/20 23:03:18;;;;;;;5.27;3.87;;;9.60;99.90;;;;;;10516388;28;20645;-84
2023/10/20 23:08:21;;;;;;;4.97;4.20;;;9.80;99.90;;;;;;10529763;28;20229;-84
2023/10/20 23:13:25;;;;;;;5.30;4.77;;;9.60;99.90;;;;;;10530051;28;20237;-84
2023/10/20 23:18:27;;;;;;;6.13;4.57;;;9.50;99.90;;;;;;10531377;28;20257;-84
2023/10/20 23:23:30;;;;;;;6.10;4.80;;;9.30;99.90;;;;;;10531527;28;20310;-84
2023/10/20 23:28:33;;;;;;;5.47;3.83;;;9.20;99.90;;;;;;10531369;28;20229;-84
2023/10/20 23:33:35;;;;;;;5.30;4.00;;;9.10;99.90;;;;;;10529414;28;20241;-85
2023/10/20 23:38:38;;;;;;;8.43;5.43;;;9.10;99.90;;;;;;10526544;28;20261;-84
2023/10/20 23:43:41;;;;;;;4.37;3.97;;;8.90;99.90;;;;;;10529377;28;20229;-84
2023/10/20 23:48:43;;;;;;;7.73;5.03;;;9.00;99.90;;;;;;10531462;28;20261;-84
2023/10/20 23:53:47;;;;;;;6.73;5.33;;;9.10;99.90;;;;;;10531201;28;20737;-84
2023/10/20 23:58:50;;;;;;;8.57;6.57;;;9.30;99.90;;;;;;10532028;28;20723;-84
